createdAt,value
2023-01-22T00:00:43.831Z,4.70
2023-01-22T00:03:15.168Z,4.07
2023-01-22T00:05:44.459Z,4.63
2023-01-22T00:08:13.389Z,5.10
2023-01-22T00:10:39.819Z,4.30
2023-01-22T00:13:08.645Z,4.72
2023-01-22T00:15:38.567Z,4.63
2023-01-22T00:18:05.041Z,5.68
2023-01-22T00:20:36.100Z,4.82
2023-01-22T00:23:04.965Z,4.07
2023-01-22T00:25:33.980Z,4.30
2023-01-22T00:28:00.450Z,4.93
2023-01-22T00:30:31.901Z,5.10
2023-01-22T00:33:01.119Z,4.38
2023-01-22T00:35:30.505Z,4.65
2023-01-22T00:37:57.112Z,5.68
2023-01-22T00:40:28.374Z,5.10
2023-01-22T00:42:54.878Z,4.50
2023-01-22T00:45:21.602Z,4.63
2023-01-22T00:47:48.135Z,5.30
2023-01-22T00:50:17.350Z,5.65
2023-01-22T00:52:46.211Z,5.45
2023-01-22T00:55:12.796Z,5.13
2023-01-22T00:57:41.589Z,5.65
2023-01-22T01:00:11.052Z,5.38
2023-01-22T01:03:03.224Z,4.63
2023-01-22T01:05:32.146Z,5.15
2023-01-22T01:07:58.715Z,4.80
2023-01-22T01:10:27.595Z,4.93
2023-01-22T01:12:56.584Z,5.53
2023-01-22T01:15:23.146Z,6.18
2023-01-22T01:17:49.808Z,5.25
2023-01-22T01:20:19.028Z,5.63
2023-01-22T01:25:14.714Z,4.90
2023-01-22T01:30:08.575Z,5.88
2023-01-22T01:32:37.493Z,6.18
2023-01-22T01:35:06.102Z,5.25
2023-01-22T01:37:32.858Z,5.85
2023-01-22T01:40:03.992Z,5.47
2023-01-22T01:42:32.654Z,6.32
2023-01-22T01:45:20.472Z,5.95
2023-01-22T01:47:48.490Z,6.30
2023-01-22T01:50:17.676Z,5.20
2023-01-22T01:52:47.014Z,5.68
2023-01-22T01:55:14.789Z,6.75
2023-01-22T01:57:41.645Z,4.90
2023-01-22T02:00:12.036Z,6.00
2023-01-22T02:05:12.847Z,5.53
2023-01-22T02:07:39.432Z,5.47
2023-01-22T02:10:09.226Z,6.32
2023-01-22T02:12:36.333Z,5.38
2023-01-22T02:15:03.883Z,6.55
2023-01-22T02:17:35.364Z,4.85
2023-01-22T02:20:01.852Z,5.38
2023-01-22T02:22:29.747Z,5.80
2023-01-22T02:24:56.424Z,6.20
2023-01-22T02:27:25.431Z,6.25
2023-01-22T02:29:54.611Z,5.07
2023-01-22T02:32:21.890Z,6.07
2023-01-22T02:34:48.540Z,5.75
2023-01-22T02:37:15.073Z,5.90
2023-01-22T02:39:43.760Z,6.45
2023-01-22T02:42:10.473Z,5.25
2023-01-22T02:44:43.317Z,5.70
2023-01-22T02:47:12.580Z,6.07
2023-01-22T02:49:44.518Z,4.90
2023-01-22T02:52:11.041Z,6.30
2023-01-22T02:54:42.435Z,6.85
2023-01-22T02:57:08.918Z,5.93
2023-01-22T02:59:37.576Z,4.43
2023-01-22T03:02:09.046Z,4.50
2023-01-22T03:04:38.121Z,5.88
2023-01-22T03:07:08.650Z,5.25
2023-01-22T03:09:37.589Z,5.55
2023-01-22T03:12:06.675Z,6.10
2023-01-22T03:14:55.686Z,6.13
2023-01-22T03:17:43.247Z,6.65
2023-01-22T03:20:32.367Z,6.00
2023-01-22T03:22:59.204Z,5.38
2023-01-22T03:25:25.712Z,5.45
2023-01-22T03:28:16.504Z,5.55
2023-01-22T03:30:48.311Z,5.13
2023-01-22T03:33:15.021Z,5.75
2023-01-22T03:35:43.911Z,5.90
2023-01-22T03:38:15.590Z,5.30
2023-01-22T03:40:42.184Z,5.80
2023-01-22T03:43:09.674Z,5.70
2023-01-22T03:45:39.266Z,5.78
2023-01-22T03:48:11.632Z,6.32
2023-01-22T03:50:41.436Z,5.57
2023-01-22T03:53:10.463Z,5.90
2023-01-22T03:55:39.530Z,6.10
2023-01-22T03:58:09.724Z,6.05
2023-01-22T04:00:37.005Z,5.97
2023-01-22T04:03:08.381Z,7.65
2023-01-22T04:05:41.461Z,5.93
2023-01-22T04:08:10.398Z,6.43
2023-01-22T04:10:42.951Z,6.35
2023-01-22T04:13:12.071Z,6.53
2023-01-22T04:15:43.847Z,6.05
2023-01-22T04:18:21.369Z,6.95
2023-01-22T04:21:13.027Z,6.65
2023-01-22T04:23:43.778Z,6.63
2023-01-22T04:26:10.555Z,5.80
2023-01-22T04:28:39.186Z,5.93
2023-01-22T04:31:08.638Z,5.88
2023-01-22T04:33:53.271Z,6.68
2023-01-22T04:38:55.417Z,6.22
2023-01-22T04:41:21.966Z,5.50
2023-01-22T04:43:48.509Z,5.90
2023-01-22T04:46:15.445Z,6.53
2023-01-22T04:48:42.020Z,6.72
2023-01-22T04:51:11.042Z,5.03
2023-01-22T04:53:40.559Z,6.88
2023-01-22T04:56:12.174Z,6.03
2023-01-22T04:58:44.704Z,6.45
2023-01-22T05:01:14.437Z,5.57
2023-01-22T05:03:43.464Z,5.93
2023-01-22T05:06:15.115Z,5.63
2023-01-22T05:08:41.923Z,7.00
2023-01-22T05:11:10.034Z,6.85
2023-01-22T05:13:50.181Z,7.43
2023-01-22T05:16:19.948Z,7.00
2023-01-22T05:18:47.235Z,6.53
2023-01-22T05:21:18.148Z,7.03
2023-01-22T05:23:49.369Z,7.63
2023-01-22T05:26:16.746Z,6.65
2023-01-22T05:28:55.233Z,5.85
2023-01-22T05:31:37.666Z,6.18
2023-01-22T05:34:07.573Z,5.43
2023-01-22T05:36:39.683Z,5.80
2023-01-22T05:39:14.172Z,6.47
2023-01-22T05:41:41.391Z,6.38
2023-01-22T05:44:10.314Z,5.90
2023-01-22T05:46:37.143Z,7.05
2023-01-22T05:49:13.300Z,5.60
2023-01-22T05:51:45.430Z,5.93
2023-01-22T05:54:16.909Z,6.53
2023-01-22T05:56:49.330Z,6.45
2023-01-22T05:59:15.854Z,6.40
2023-01-22T06:01:47.186Z,6.47
2023-01-22T06:04:21.471Z,5.95
2023-01-22T06:06:48.635Z,5.53
2023-01-22T06:09:16.105Z,6.68
2023-01-22T06:11:45.860Z,6.47
2023-01-22T06:14:15.189Z,7.43
2023-01-22T06:16:44.457Z,6.53
2023-01-22T06:19:31.264Z,6.43
2023-01-22T06:21:57.853Z,7.30
2023-01-22T06:24:30.843Z,6.35
2023-01-22T06:27:00.106Z,7.78
2023-01-22T06:29:40.115Z,6.82
2023-01-22T06:32:09.800Z,7.63
2023-01-22T06:34:36.968Z,7.40
2023-01-22T06:37:08.574Z,7.18
2023-01-22T06:39:42.689Z,7.15
2023-01-22T06:42:23.106Z,6.50
2023-01-22T06:44:51.795Z,7.90
2023-01-22T06:47:23.567Z,6.53
2023-01-22T06:49:52.103Z,6.32
2023-01-22T06:52:20.932Z,6.18
2023-01-22T06:54:47.469Z,6.95
2023-01-22T06:57:14.283Z,7.30
2023-01-22T06:59:43.437Z,6.40
2023-01-22T07:02:16.151Z,7.15
2023-01-22T07:04:47.743Z,6.70
2023-01-22T07:07:16.630Z,7.97
2023-01-22T07:09:43.206Z,6.18
2023-01-22T07:12:14.550Z,7.47
2023-01-22T07:14:45.737Z,6.38
2023-01-22T07:17:12.210Z,6.35
2023-01-22T07:19:41.108Z,5.68
2023-01-22T07:22:12.607Z,5.95
2023-01-22T07:24:43.306Z,6.15
2023-01-22T07:27:11.960Z,5.72
2023-01-22T07:29:41.532Z,6.75
2023-01-22T07:32:10.342Z,5.15
2023-01-22T07:34:37.397Z,7.45
2023-01-22T07:37:08.876Z,7.55
2023-01-22T07:39:40.377Z,6.85
2023-01-22T07:42:09.252Z,6.88
2023-01-22T07:44:40.351Z,7.88
2023-01-22T07:47:09.232Z,7.30
2023-01-22T07:49:35.799Z,7.45
2023-01-22T07:52:07.176Z,7.20
2023-01-22T07:54:38.733Z,9.18
2023-01-22T07:57:07.665Z,9.27
2023-01-22T07:59:39.692Z,11.30
2023-01-22T08:02:06.214Z,9.52
2023-01-22T08:04:32.744Z,10.80
2023-01-22T08:07:01.322Z,9.52
2023-01-22T08:09:27.768Z,9.38
2023-01-22T08:11:54.244Z,9.90
2023-01-22T08:14:20.847Z,7.50
2023-01-22T08:16:47.436Z,19.65
2023-01-22T08:19:16.490Z,16.92
2023-01-22T08:21:45.506Z,10.90
2023-01-22T08:24:12.652Z,7.35
2023-01-22T08:26:39.280Z,6.38
2023-01-22T08:29:08.076Z,6.72
2023-01-22T08:31:34.933Z,7.47
2023-01-22T08:34:01.606Z,5.90
2023-01-22T08:36:32.777Z,5.75
2023-01-22T08:39:04.299Z,4.72
2023-01-22T08:41:30.787Z,5.53
2023-01-22T08:44:01.615Z,6.47
2023-01-22T08:46:30.914Z,4.40
2023-01-22T08:48:57.426Z,5.78
2023-01-22T08:51:26.704Z,5.45
2023-01-22T08:56:24.664Z,6.10
2023-01-22T08:58:56.094Z,5.70
2023-01-22T09:01:22.637Z,4.88
2023-01-22T09:03:53.786Z,5.50
2023-01-22T09:06:20.324Z,5.60
2023-01-22T09:08:49.205Z,4.57
2023-01-22T09:11:17.963Z,4.40
2023-01-22T09:13:45.004Z,4.22
2023-01-22T09:16:13.903Z,5.07
2023-01-22T09:18:43.435Z,4.25
2023-01-22T09:21:14.568Z,4.60
2023-01-22T09:23:43.109Z,5.25
2023-01-22T09:26:11.980Z,5.20
2023-01-22T09:28:38.445Z,5.10
2023-01-22T09:31:07.399Z,5.63
2023-01-22T09:33:36.262Z,5.93
2023-01-22T09:36:06.543Z,5.30
2023-01-22T09:38:33.018Z,4.88
2023-01-22T09:41:02.026Z,5.82
2023-01-22T09:43:49.097Z,5.13
2023-01-22T09:46:19.717Z,4.47
2023-01-22T09:48:47.970Z,4.80
2023-01-22T09:51:15.461Z,4.75
2023-01-22T09:53:53.721Z,4.45
2023-01-22T09:56:26.118Z,5.07
2023-01-22T09:58:52.950Z,4.75
2023-01-22T10:01:21.832Z,5.18
2023-01-22T10:03:56.036Z,5.95
2023-01-22T10:06:25.292Z,5.65
2023-01-22T10:08:54.191Z,4.30
2023-01-22T10:11:23.060Z,5.03
2023-01-22T10:13:56.671Z,5.15
2023-01-22T10:16:23.365Z,6.15
2023-01-22T10:18:49.866Z,6.03
2023-01-22T10:21:24.445Z,5.25
2023-01-22T10:23:51.462Z,5.15
2023-01-22T10:26:25.278Z,5.05
2023-01-22T10:28:58.058Z,5.90
2023-01-22T10:31:33.346Z,6.45
2023-01-22T10:34:33.302Z,6.30
2023-01-22T10:37:12.820Z,7.50
2023-01-22T10:39:42.720Z,5.30
2023-01-22T10:42:23.053Z,6.25
2023-01-22T10:44:52.482Z,6.72
2023-01-22T10:47:26.651Z,5.53
2023-01-22T10:50:24.656Z,7.15
2023-01-22T10:52:57.427Z,5.30
2023-01-22T10:55:25.708Z,5.15
2023-01-22T10:57:57.696Z,5.25
2023-01-22T11:00:51.766Z,4.68
2023-01-22T11:03:33.587Z,4.53
2023-01-22T11:06:04.509Z,4.55
2023-01-22T11:08:38.309Z,4.80
2023-01-22T11:11:09.187Z,4.32
2023-01-22T11:13:38.700Z,4.70
2023-01-22T11:16:09.665Z,4.93
2023-01-22T11:21:19.437Z,4.30
2023-01-22T11:24:06.412Z,4.75
2023-01-22T11:26:39.008Z,4.35
2023-01-22T11:29:11.748Z,5.60
2023-01-22T11:31:59.818Z,4.32
2023-01-22T11:34:41.321Z,5.28
2023-01-22T11:37:18.909Z,5.07
2023-01-22T11:40:04.664Z,5.65
2023-01-22T11:42:36.735Z,4.45
2023-01-22T11:45:22.158Z,4.38
2023-01-22T11:48:11.957Z,4.00
2023-01-22T11:50:47.581Z,4.88
2023-01-22T11:53:23.365Z,5.43
2023-01-22T11:56:06.429Z,4.85
2023-01-22T11:58:38.387Z,4.97
2023-01-22T12:01:25.159Z,5.28
2023-01-22T12:03:54.068Z,5.50
2023-01-22T12:06:37.914Z,5.03
2023-01-22T12:09:07.444Z,5.53
2023-01-22T12:11:55.359Z,5.38
2023-01-22T12:14:31.792Z,5.45
2023-01-22T12:17:04.754Z,6.35
2023-01-22T12:19:43.541Z,4.88
2023-01-22T12:22:24.209Z,5.75
2023-01-22T12:24:59.032Z,5.38
2023-01-22T12:27:30.318Z,6.22
2023-01-22T12:30:02.692Z,5.18
2023-01-22T12:32:30.133Z,6.00
2023-01-22T12:35:28.719Z,5.38
2023-01-22T12:40:38.949Z,5.50
2023-01-22T12:43:06.701Z,5.18
2023-01-22T12:45:36.186Z,6.10
2023-01-22T12:48:14.956Z,6.30
2023-01-22T12:51:07.863Z,5.95
2023-01-22T12:53:34.745Z,5.05
2023-01-22T12:56:10.205Z,7.57
2023-01-22T12:58:38.375Z,6.40
2023-01-22T13:01:13.893Z,7.13
2023-01-22T13:03:41.413Z,7.25
2023-01-22T13:06:18.897Z,8.00
2023-01-22T13:09:02.770Z,10.32
2023-01-22T13:11:42.664Z,8.27
2023-01-22T13:14:22.367Z,7.55
2023-01-22T13:16:54.440Z,6.80
2023-01-22T13:19:27.337Z,7.70
2023-01-22T13:21:59.224Z,7.55
2023-01-22T13:24:28.162Z,6.47
2023-01-22T13:27:01.690Z,6.60
2023-01-22T13:29:37.536Z,6.85
2023-01-22T13:32:05.755Z,5.15
2023-01-22T13:34:32.345Z,6.10
2023-01-22T13:36:59.003Z,6.13
2023-01-22T13:39:31.733Z,5.78
2023-01-22T13:41:59.909Z,6.47
2023-01-22T13:44:48.829Z,5.80
2023-01-22T13:47:35.238Z,5.80
2023-01-22T13:50:04.112Z,5.50
2023-01-22T13:52:38.128Z,6.10
2023-01-22T13:55:06.714Z,6.07
2023-01-22T13:57:33.171Z,5.50
2023-01-22T14:00:05.020Z,6.10
2023-01-22T14:02:34.721Z,5.07
2023-01-22T14:05:03.814Z,5.90
2023-01-22T14:07:42.288Z,5.18
2023-01-22T14:10:14.376Z,5.22
2023-01-22T14:12:43.017Z,5.18
2023-01-22T14:15:21.628Z,4.68
2023-01-22T14:17:50.448Z,5.85
2023-01-22T14:20:21.911Z,5.40
2023-01-22T14:22:48.653Z,5.97
2023-01-22T14:25:17.392Z,4.55
2023-01-22T14:27:43.862Z,4.93
2023-01-22T14:30:14.682Z,5.07
2023-01-22T14:32:46.590Z,5.90
2023-01-22T14:35:22.009Z,5.07
2023-01-22T14:37:48.564Z,5.25
2023-01-22T14:40:16.358Z,4.93
2023-01-22T14:42:43.088Z,4.63
2023-01-22T14:45:12.414Z,5.75
2023-01-22T14:47:41.305Z,6.97
2023-01-22T14:50:08.330Z,5.15
2023-01-22T14:55:03.663Z,5.80
2023-01-22T14:57:32.277Z,5.55
2023-01-22T15:00:02.666Z,5.18
2023-01-22T15:02:29.314Z,5.78
2023-01-22T15:04:55.928Z,6.00
2023-01-22T15:07:24.973Z,5.88
2023-01-22T15:09:51.483Z,5.57
2023-01-22T15:12:23.326Z,5.75
2023-01-22T15:14:49.801Z,5.20
2023-01-22T15:17:21.587Z,5.85
2023-01-22T15:19:52.645Z,5.30
2023-01-22T15:22:24.569Z,5.32
2023-01-22T15:24:55.958Z,5.95
2023-01-22T15:27:22.597Z,6.40
2023-01-22T15:29:49.140Z,5.85
2023-01-22T15:32:18.115Z,5.57
2023-01-22T15:34:44.682Z,5.40
2023-01-22T15:37:14.916Z,5.60
2023-01-22T15:39:41.886Z,5.32
2023-01-22T15:42:13.776Z,4.47
2023-01-22T15:44:42.566Z,4.75
2023-01-22T15:47:10.803Z,5.10
2023-01-22T15:49:39.808Z,5.90
2023-01-22T15:52:08.763Z,5.93
2023-01-22T15:54:37.712Z,4.18
2023-01-22T15:57:06.495Z,4.22
2023-01-22T15:59:41.349Z,5.75
2023-01-22T16:02:15.841Z,5.05
2023-01-22T16:04:44.806Z,5.25
2023-01-22T16:07:13.924Z,5.13
2023-01-22T16:09:40.504Z,5.72
2023-01-22T16:12:09.721Z,6.00
2023-01-22T16:14:40.942Z,6.25
2023-01-22T16:17:09.673Z,5.35
2023-01-22T16:19:36.204Z,5.13
2023-01-22T16:22:02.953Z,6.40
2023-01-22T16:24:36.699Z,5.97
2023-01-22T16:27:05.817Z,4.93
2023-01-22T16:29:32.392Z,4.55
2023-01-22T16:32:01.000Z,4.70
2023-01-22T16:34:33.013Z,5.53
2023-01-22T16:36:59.702Z,4.82
2023-01-22T16:39:28.754Z,5.35
2023-01-22T16:41:57.583Z,4.93
2023-01-22T16:44:31.870Z,5.53
2023-01-22T16:47:00.797Z,6.43
2023-01-22T16:49:33.644Z,5.82
2023-01-22T16:52:13.020Z,5.95
2023-01-22T16:54:48.024Z,5.85
2023-01-22T16:59:56.322Z,6.63
2023-01-22T17:02:28.390Z,8.45
2023-01-22T17:04:58.010Z,6.47
2023-01-22T17:07:33.671Z,6.97
2023-01-22T17:10:05.417Z,7.20
2023-01-22T17:12:31.910Z,6.88
2023-01-22T17:14:58.428Z,7.05
2023-01-22T17:17:24.927Z,6.45
2023-01-22T17:19:53.657Z,6.10
2023-01-22T17:22:24.205Z,5.43
2023-01-22T17:24:53.180Z,6.78
2023-01-22T17:27:22.213Z,5.75
2023-01-22T17:29:48.814Z,8.15
2023-01-22T17:32:15.321Z,5.63
2023-01-22T17:34:42.049Z,6.80
2023-01-22T17:37:11.248Z,6.22
2023-01-22T17:39:38.168Z,5.97
2023-01-22T17:42:07.031Z,6.57
2023-01-22T17:44:34.846Z,6.78
2023-01-22T17:47:05.735Z,5.55
2023-01-22T17:49:33.300Z,5.97
2023-01-22T17:51:59.940Z,6.68
2023-01-22T17:54:26.729Z,7.28
2023-01-22T17:56:55.579Z,7.25
2023-01-22T17:59:25.001Z,7.20
2023-01-22T18:01:54.049Z,6.57
2023-01-22T18:04:27.791Z,6.85
2023-01-22T18:06:56.829Z,6.47
2023-01-22T18:09:25.714Z,7.00
2023-01-22T18:11:52.307Z,8.02
2023-01-22T18:14:22.434Z,6.30
2023-01-22T18:16:51.940Z,6.13
2023-01-22T18:19:23.153Z,6.18
2023-01-22T18:21:49.858Z,6.97
2023-01-22T18:24:22.871Z,7.07
2023-01-22T18:26:54.369Z,6.95
2023-01-22T18:29:23.355Z,7.05
2023-01-22T18:31:49.896Z,6.80
2023-01-22T18:34:18.895Z,6.38
2023-01-22T18:36:47.849Z,6.75
2023-01-22T18:39:15.532Z,7.00
2023-01-22T18:41:42.385Z,7.47
2023-01-22T18:44:12.992Z,6.53
2023-01-22T18:46:45.249Z,6.95
2023-01-22T18:49:16.369Z,7.35
2023-01-22T18:51:44.935Z,7.95
2023-01-22T18:54:14.284Z,8.50
2023-01-22T18:56:43.308Z,6.55
2023-01-22T18:59:13.064Z,5.70
2023-01-22T19:01:40.868Z,5.95
2023-01-22T19:04:09.023Z,7.15
2023-01-22T19:06:39.021Z,6.13
2023-01-22T19:09:14.500Z,7.65
2023-01-22T19:11:49.705Z,6.68
2023-01-22T19:14:17.419Z,7.60
2023-01-22T19:16:48.469Z,9.25
2023-01-22T19:19:17.836Z,9.80
2023-01-22T19:21:47.696Z,10.15
2023-01-22T19:24:18.521Z,7.93
2023-01-22T19:26:46.671Z,7.45
2023-01-22T19:29:19.972Z,6.15
2023-01-22T19:31:47.755Z,6.70
2023-01-22T19:34:23.606Z,7.50
2023-01-22T19:36:57.436Z,7.22
2023-01-22T19:39:28.822Z,5.90
2023-01-22T19:42:01.808Z,6.57
2023-01-22T19:44:31.498Z,6.20
2023-01-22T19:46:58.923Z,7.07
2023-01-22T19:49:25.528Z,7.28
2023-01-22T19:51:56.975Z,6.20
2023-01-22T19:54:28.951Z,6.70
2023-01-22T19:57:00.210Z,6.57
2023-01-22T19:59:30.018Z,6.32
2023-01-22T20:01:58.805Z,7.00
2023-01-22T20:04:29.810Z,6.95
2023-01-22T20:07:00.620Z,8.43
2023-01-22T20:09:34.680Z,7.22
2023-01-22T20:12:01.738Z,6.35
2023-01-22T20:14:30.009Z,7.35
2023-01-22T20:17:02.248Z,6.68
2023-01-22T20:19:33.893Z,9.02
2023-01-22T20:22:07.154Z,9.10
2023-01-22T20:24:37.591Z,9.02
2023-01-22T20:27:04.157Z,7.60
2023-01-22T20:29:36.855Z,8.40
2023-01-22T20:32:05.831Z,8.27
2023-01-22T20:34:37.257Z,6.55
2023-01-22T20:37:09.130Z,8.15
2023-01-22T20:39:35.592Z,8.23
2023-01-22T20:42:06.711Z,7.97
2023-01-22T20:44:34.937Z,8.43
2023-01-22T20:47:04.421Z,8.43
2023-01-22T20:49:33.449Z,8.07
2023-01-22T20:52:03.209Z,7.88
2023-01-22T20:54:32.212Z,10.43
2023-01-22T20:56:58.765Z,11.02
2023-01-22T20:59:28.674Z,11.50
2023-01-22T21:01:55.271Z,8.65
2023-01-22T21:04:21.853Z,8.40
2023-01-22T21:06:48.353Z,9.68
2023-01-22T21:09:14.823Z,8.85
2023-01-22T21:11:41.912Z,9.82
2023-01-22T21:16:40.887Z,9.43
2023-01-22T21:19:21.971Z,8.27
2023-01-22T21:21:48.596Z,7.80
2023-01-22T21:24:20.141Z,7.78
2023-01-22T21:26:50.101Z,9.02
2023-01-22T21:29:22.833Z,8.05
2023-01-22T21:31:50.686Z,8.27
2023-01-22T21:34:22.086Z,8.13
2023-01-22T21:36:49.328Z,8.63
2023-01-22T21:39:18.520Z,8.60
2023-01-22T21:41:45.362Z,9.20
2023-01-22T21:44:35.086Z,8.55
2023-01-22T21:47:02.358Z,6.68
2023-01-22T21:49:29.047Z,7.97
2023-01-22T21:51:57.068Z,8.18
2023-01-22T21:54:27.658Z,8.35
2023-01-22T21:56:56.610Z,8.30
2023-01-22T21:59:23.419Z,9.10
2023-01-22T22:01:58.690Z,8.07
2023-01-22T22:04:26.483Z,9.25
2023-01-22T22:06:55.314Z,9.75
2023-01-22T22:09:23.143Z,9.07
2023-01-22T22:11:56.237Z,7.43
2023-01-22T22:14:27.655Z,7.35
2023-01-22T22:16:57.446Z,6.35
2023-01-22T22:19:24.257Z,7.32
2023-01-22T22:21:51.161Z,7.22
2023-01-22T22:26:53.350Z,6.82
2023-01-22T22:29:19.905Z,6.13
2023-01-22T22:31:51.440Z,7.75
2023-01-22T22:34:21.069Z,7.65
2023-01-22T22:36:47.600Z,8.23
2023-01-22T22:39:14.155Z,7.63
2023-01-22T22:41:43.363Z,7.93
2023-01-22T22:44:10.816Z,8.02
2023-01-22T22:46:42.258Z,8.57
2023-01-22T22:49:11.819Z,7.88
2023-01-22T22:51:44.232Z,7.85
2023-01-22T22:54:12.511Z,7.57
2023-01-22T22:56:39.073Z,6.72
2023-01-22T22:59:05.672Z,7.10
2023-01-22T23:01:33.221Z,8.80
2023-01-22T23:04:04.637Z,8.50
2023-01-22T23:06:33.415Z,7.32
2023-01-22T23:09:09.737Z,8.82
2023-01-22T23:11:41.093Z,8.02
2023-01-22T23:14:08.104Z,8.70
2023-01-22T23:19:06.835Z,6.90
2023-01-22T23:21:36.540Z,8.48
2023-01-22T23:24:08.196Z,6.88
2023-01-22T23:26:34.717Z,7.22
2023-01-22T23:29:05.716Z,8.70
2023-01-22T23:31:33.406Z,7.10
2023-01-22T23:34:00.637Z,7.25
2023-01-22T23:36:27.230Z,7.45
2023-01-22T23:38:54.068Z,7.78
2023-01-22T23:41:25.366Z,7.65
2023-01-22T23:43:54.353Z,7.82
2023-01-22T23:46:22.342Z,9.02
2023-01-22T23:48:49.020Z,9.20
2023-01-22T23:51:18.655Z,8.68
2023-01-22T23:56:12.315Z,7.38
2023-01-22T23:58:39.343Z,8.50
